P.t. Monto — VMBF — position and weather

sailwx.info

Track history (hours):
 
Tides and Currents Weather Stations Pressure Air Temp Water Temp Dewpoint Dewpoint Depression Visibility Wind Speed Wind Dir Waves Ship Positions

P.t. Monto

Last reported at 2015-Jan-02 17:08 UTC. Time now 2015-Feb-01 19:43 UTC.
Position S 27°26' E 153°07'.
Warning: this ship's position is 30 days out of date.

Length 32 m; draft 3 m.

Type: Tug. MMSI: 503612000.

Date/timePositionNaut miles runAvg speedWind from/ knotsBaromVisibWave heightAir tempDewpointWater temp
2015-Jan-02 17:08S 27°26' E 153°07'4 7.3
2015-Jan-02 16:33S 27°22' E 153°10'8 7.9
2015-Jan-02 15:33S 27°16' E 153°15'8 7.8
2015-Jan-02 14:33S 27°09' E 153°20'7 7.3
2015-Jan-02 13:33S 27°03' E 153°16'8 7.5
2015-Jan-02 12:33S 26°56' E 153°12'8 7.5
2015-Jan-02 11:33S 26°49' E 153°10'  
2014-Dec-27 08:27S 26°46' E 153°11'8 8.7
2014-Dec-27 07:33S 26°54' E 153°11'10 9.7
2014-Dec-27 06:33S 27°02' E 153°16'9 8.7
2014-Dec-27 05:33S 27°11' E 153°19'9 9.0
2014-Dec-27 04:33S 27°18' E 153°13'8 8.4
2014-Dec-27 03:33S 27°25' E 153°08'3 3.1
2014-Dec-27 02:33S 27°27' E 153°05'0 0.0
2014-Dec-27 01:33S 27°27' E 153°05'0 0.0
2014-Dec-27 00:33S 27°27' E 153°05'0 0.0
2014-Dec-26 23:33S 27°27' E 153°05'0 0.0
2014-Dec-26 22:32S 27°27' E 153°05'0 0.0
2014-Dec-26 20:24S 27°27' E 153°05'0 0.1
2014-Dec-26 19:21S 27°27' E 153°05'0 0.0
2014-Dec-26 17:33S 27°27' E 153°05'0 0.1
2014-Dec-26 16:33S 27°27' E 153°05'0 0.0
2014-Dec-26 15:31S 27°27' E 153°05'0 0.0
2014-Dec-26 14:32S 27°27' E 153°05'0 0.0
2014-Dec-26 13:28S 27°27' E 153°05'0 0.0
2014-Dec-26 12:33S 27°27' E 153°05'0 0.0
2014-Dec-26 11:22S 27°27' E 153°05'0 0.0
2014-Dec-26 10:33S 27°27' E 153°05'0 0.0
2014-Dec-26 09:28S 27°27' E 153°05'0 0.0
2014-Dec-26 08:30S 27°27' E 153°05'0 0.0
2014-Dec-26 07:27S 27°27' E 153°05'0 0.0
2014-Dec-26 06:21S 27°27' E 153°05'0 0.1
2014-Dec-26 05:33S 27°27' E 153°05'0 0.1
2014-Dec-26 04:33S 27°27' E 153°05'0 0.0
2014-Dec-26 03:32S 27°27' E 153°05'0 0.0
2014-Dec-26 02:33S 27°27' E 153°05'0 0.0
2014-Dec-26 01:33S 27°27' E 153°05'0 0.0
2014-Dec-26 00:33S 27°27' E 153°05'0 0.0
2014-Dec-25 23:33S 27°27' E 153°05'0 0.0
2014-Dec-25 22:31S 27°27' E 153°05'0 0.1
2014-Dec-25 21:33S 27°27' E 153°05'0 0.0
2014-Dec-25 20:22S 27°27' E 153°05'0 0.1
2014-Dec-25 19:29S 27°27' E 153°05'0 0.1
2014-Dec-25 18:33S 27°27' E 153°05'0 0.1
2014-Dec-25 17:32S 27°27' E 153°05'0 0.0
2014-Dec-25 15:05S 27°27' E 153°05'0 0.0
2014-Dec-25 14:31S 27°27' E 153°05'0 0.1
2014-Dec-25 13:33S 27°27' E 153°05'0 0.1
2014-Dec-25 12:33S 27°27' E 153°05'0 0.0
2014-Dec-25 11:30S 27°27' E 153°05'0 0.0
2014-Dec-25 10:23S 27°27' E 153°05'0 0.0
2014-Dec-25 09:31S 27°27' E 153°05'0 0.0
2014-Dec-25 08:28S 27°27' E 153°05'0 0.0
2014-Dec-25 07:21S 27°27' E 153°05'0 0.0
2014-Dec-25 06:31S 27°27' E 153°05'0 0.0
2014-Dec-25 05:32S 27°27' E 153°05'0 0.0
2014-Dec-25 04:30S 27°27' E 153°05'0 0.0
2014-Dec-25 03:33S 27°27' E 153°05'0 0.0
2014-Dec-25 02:33S 27°27' E 153°05'0 0.0
2014-Dec-25 01:33S 27°27' E 153°05'0 0.0
2014-Dec-25 00:33S 27°27' E 153°05'0 0.0
2014-Dec-24 23:33S 27°27' E 153°05'0 0.0
2014-Dec-24 22:33S 27°27' E 153°05'0 0.0
2014-Dec-24 21:33S 27°27' E 153°05'0 0.0
2014-Dec-24 20:30S 27°27' E 153°05'0 0.0
2014-Dec-24 19:33S 27°27' E 153°05'0 0.1
2014-Dec-24 18:33S 27°27' E 153°05'0 0.1
2014-Dec-24 17:33S 27°27' E 153°05'0 0.1
2014-Dec-24 16:31S 27°27' E 153°05'0 0.1
2014-Dec-24 15:29S 27°27' E 153°05'0 0.0
2014-Dec-24 14:33S 27°27' E 153°05'0 0.0
2014-Dec-24 13:32S 27°27' E 153°05'0 0.0
2014-Dec-24 12:33S 27°27' E 153°05'0 0.0
2014-Dec-24 11:29S 27°27' E 153°05'0 0.0
2014-Dec-24 10:30S 27°27' E 153°05'0 0.0
2014-Dec-24 09:25S 27°27' E 153°05'0 0.0
2014-Dec-24 08:31S 27°27' E 153°05'0 0.0
2014-Dec-24 07:06S 27°27' E 153°05'0 0.0
2014-Dec-24 06:33S 27°27' E 153°05'0 0.0
2014-Dec-24 05:33S 27°27' E 153°05'0 0.0
2014-Dec-24 04:33S 27°27' E 153°05'0 0.0
2014-Dec-24 03:20S 27°27' E 153°05'0 0.0
2014-Dec-24 02:33S 27°27' E 153°05'0 0.0
2014-Dec-24 01:33S 27°27' E 153°05'0 0.0
2014-Dec-24 00:33S 27°27' E 153°05'0 0.0
2014-Dec-23 23:33S 27°27' E 153°05'0 0.0
2014-Dec-23 22:32S 27°27' E 153°05'0 0.0
2014-Dec-23 21:31S 27°27' E 153°05'0 0.1
2014-Dec-23 20:33S 27°27' E 153°05'0 0.1
2014-Dec-23 19:33S 27°27' E 153°05'0 0.0
2014-Dec-23 18:29S 27°27' E 153°05'0 0.1
2014-Dec-23 17:33S 27°27' E 153°05'  
Track history (hours):
 
Tides and Currents Weather Stations Pressure Air Temp Water Temp Dewpoint Dewpoint Depression Visibility Wind Speed Wind Dir Waves Ship Positions

P.t. Monto

Last reported at 2015-Jan-02 17:08 UTC. Time now 2015-Feb-01 19:43 UTC.
Position S 27°26' E 153°07'.
Warning: this ship's position is 30 days out of date.

Length 32 m; draft 3 m.

Type: Tug. MMSI: 503612000.

Date/timePositionNaut miles runAvg speedWind from/ knotsBaromVisibWave heightAir tempDewpointWater temp
2015-Jan-02 17:08S 27°26' E 153°07'4 7.3
2015-Jan-02 16:33S 27°22' E 153°10'8 7.9
2015-Jan-02 15:33S 27°16' E 153°15'8 7.8
2015-Jan-02 14:33S 27°09' E 153°20'7 7.3
2015-Jan-02 13:33S 27°03' E 153°16'8 7.5
2015-Jan-02 12:33S 26°56' E 153°12'8 7.5
2015-Jan-02 11:33S 26°49' E 153°10'  
2014-Dec-27 08:27S 26°46' E 153°11'8 8.7
2014-Dec-27 07:33S 26°54' E 153°11'10 9.7
2014-Dec-27 06:33S 27°02' E 153°16'9 8.7
2014-Dec-27 05:33S 27°11' E 153°19'9 9.0
2014-Dec-27 04:33S 27°18' E 153°13'8 8.4
2014-Dec-27 03:33S 27°25' E 153°08'3 3.1
2014-Dec-27 02:33S 27°27' E 153°05'0 0.0
2014-Dec-27 01:33S 27°27' E 153°05'0 0.0
2014-Dec-27 00:33S 27°27' E 153°05'0 0.0
2014-Dec-26 23:33S 27°27' E 153°05'0 0.0
2014-Dec-26 22:32S 27°27' E 153°05'0 0.0
2014-Dec-26 20:24S 27°27' E 153°05'0 0.1
2014-Dec-26 19:21S 27°27' E 153°05'0 0.0
2014-Dec-26 17:33S 27°27' E 153°05'0 0.1
2014-Dec-26 16:33S 27°27' E 153°05'0 0.0
2014-Dec-26 15:31S 27°27' E 153°05'0 0.0
2014-Dec-26 14:32S 27°27' E 153°05'0 0.0
2014-Dec-26 13:28S 27°27' E 153°05'0 0.0
2014-Dec-26 12:33S 27°27' E 153°05'0 0.0
2014-Dec-26 11:22S 27°27' E 153°05'0 0.0
2014-Dec-26 10:33S 27°27' E 153°05'0 0.0
2014-Dec-26 09:28S 27°27' E 153°05'0 0.0
2014-Dec-26 08:30S 27°27' E 153°05'0 0.0
2014-Dec-26 07:27S 27°27' E 153°05'0 0.0
2014-Dec-26 06:21S 27°27' E 153°05'0 0.1
2014-Dec-26 05:33S 27°27' E 153°05'0 0.1
2014-Dec-26 04:33S 27°27' E 153°05'0 0.0
2014-Dec-26 03:32S 27°27' E 153°05'0 0.0
2014-Dec-26 02:33S 27°27' E 153°05'0 0.0
2014-Dec-26 01:33S 27°27' E 153°05'0 0.0
2014-Dec-26 00:33S 27°27' E 153°05'0 0.0
2014-Dec-25 23:33S 27°27' E 153°05'0 0.0
2014-Dec-25 22:31S 27°27' E 153°05'0 0.1
2014-Dec-25 21:33S 27°27' E 153°05'0 0.0
2014-Dec-25 20:22S 27°27' E 153°05'0 0.1
2014-Dec-25 19:29S 27°27' E 153°05'0 0.1
2014-Dec-25 18:33S 27°27' E 153°05'0 0.1
2014-Dec-25 17:32S 27°27' E 153°05'0 0.0
2014-Dec-25 15:05S 27°27' E 153°05'0 0.0
2014-Dec-25 14:31S 27°27' E 153°05'0 0.1
2014-Dec-25 13:33S 27°27' E 153°05'0 0.1
2014-Dec-25 12:33S 27°27' E 153°05'0 0.0
2014-Dec-25 11:30S 27°27' E 153°05'0 0.0
2014-Dec-25 10:23S 27°27' E 153°05'0 0.0
2014-Dec-25 09:31S 27°27' E 153°05'0 0.0
2014-Dec-25 08:28S 27°27' E 153°05'0 0.0
2014-Dec-25 07:21S 27°27' E 153°05'0 0.0
2014-Dec-25 06:31S 27°27' E 153°05'0 0.0
2014-Dec-25 05:32S 27°27' E 153°05'0 0.0
2014-Dec-25 04:30S 27°27' E 153°05'0 0.0
2014-Dec-25 03:33S 27°27' E 153°05'0 0.0
2014-Dec-25 02:33S 27°27' E 153°05'0 0.0
2014-Dec-25 01:33S 27°27' E 153°05'0 0.0
2014-Dec-25 00:33S 27°27' E 153°05'0 0.0
2014-Dec-24 23:33S 27°27' E 153°05'0 0.0
2014-Dec-24 22:33S 27°27' E 153°05'0 0.0
2014-Dec-24 21:33S 27°27' E 153°05'0 0.0
2014-Dec-24 20:30S 27°27' E 153°05'0 0.0
2014-Dec-24 19:33S 27°27' E 153°05'0 0.1
2014-Dec-24 18:33S 27°27' E 153°05'0 0.1
2014-Dec-24 17:33S 27°27' E 153°05'0 0.1
2014-Dec-24 16:31S 27°27' E 153°05'0 0.1
2014-Dec-24 15:29S 27°27' E 153°05'0 0.0
2014-Dec-24 14:33S 27°27' E 153°05'0 0.0
2014-Dec-24 13:32S 27°27' E 153°05'0 0.0
2014-Dec-24 12:33S 27°27' E 153°05'0 0.0
2014-Dec-24 11:29S 27°27' E 153°05'0 0.0
2014-Dec-24 10:30S 27°27' E 153°05'0 0.0
2014-Dec-24 09:25S 27°27' E 153°05'0 0.0
2014-Dec-24 08:31S 27°27' E 153°05'0 0.0
2014-Dec-24 07:06S 27°27' E 153°05'0 0.0
2014-Dec-24 06:33S 27°27' E 153°05'0 0.0
2014-Dec-24 05:33S 27°27' E 153°05'0 0.0
2014-Dec-24 04:33S 27°27' E 153°05'0 0.0
2014-Dec-24 03:20S 27°27' E 153°05'0 0.0
2014-Dec-24 02:33S 27°27' E 153°05'0 0.0
2014-Dec-24 01:33S 27°27' E 153°05'0 0.0
2014-Dec-24 00:33S 27°27' E 153°05'0 0.0
2014-Dec-23 23:33S 27°27' E 153°05'0 0.0
2014-Dec-23 22:32S 27°27' E 153°05'0 0.0
2014-Dec-23 21:31S 27°27' E 153°05'0 0.1
2014-Dec-23 20:33S 27°27' E 153°05'0 0.1
2014-Dec-23 19:33S 27°27' E 153°05'0 0.0
2014-Dec-23 18:29S 27°27' E 153°05'0 0.1
2014-Dec-23 17:33S 27°27' E 153°05'  

Dump ship's entire track history